Time;durP1;ratioP1;P1;durP2;ratioP2;P2;SDS_P1;SDS_P2;PMS_P1;PMS_P2;Temp;Humidity;BMP_temperature;BMP_pressure;BME280_temperature;BME280_humidity;BME280_pressure;Samples;Min_cycle;Max_cycle;Signal;HPM_P1;HPM_P2
2022/04/06 00:00:49;;;;;;;53.88;22.20;;;8.50;99.90;;;;;;4993961;28;20129;-83
2022/04/06 00:03:15;;;;;;;50.90;21.52;;;8.50;99.90;;;;;;4994475;28;20173;-84
2022/04/06 00:05:41;;;;;;;47.65;21.38;;;8.50;99.90;;;;;;4977765;28;20053;-83
2022/04/06 00:08:07;;;;;;;48.88;21.73;;;8.50;99.90;;;;;;4994470;28;20054;-84
2022/04/06 00:10:32;;;;;;;48.15;21.15;;;8.50;99.90;;;;;;4993986;28;20054;-84
2022/04/06 00:12:59;;;;;;;44.22;20.33;;;8.60;99.90;;;;;;4993175;28;20061;-84
2022/04/06 00:15:25;;;;;;;46.75;20.15;;;8.60;99.90;;;;;;4961898;28;20054;-84
2022/04/06 00:17:51;;;;;;;55.28;20.35;;;8.50;99.90;;;;;;5009078;28;20505;-84
2022/04/06 00:20:17;;;;;;;41.20;18.92;;;8.60;99.90;;;;;;5009884;28;20054;-84
2022/04/06 00:22:43;;;;;;;42.30;18.58;;;8.60;99.90;;;;;;5009879;28;20089;-84
2022/04/06 00:25:09;;;;;;;41.53;18.92;;;8.60;99.90;;;;;;4994079;28;20080;-84
2022/04/06 00:27:34;;;;;;;42.95;19.60;;;8.60;99.90;;;;;;5008239;28;20029;-82
2022/04/06 00:30:00;;;;;;;47.08;18.50;;;8.60;99.90;;;;;;5018150;28;20042;-83
2022/04/06 00:32:26;;;;;;;45.03;18.45;;;9.20;99.90;;;;;;5013058;28;20072;-84
2022/04/06 00:37:36;;;;;;;39.33;18.13;;;8.60;99.90;;;;;;5014941;28;20054;-84
2022/04/06 00:40:02;;;;;;;48.63;19.02;;;8.60;99.90;;;;;;4981390;28;20042;-84
2022/04/06 00:42:28;;;;;;;42.40;18.02;;;8.60;99.90;;;;;;5015225;28;20081;-83
2022/04/06 00:44:53;;;;;;;44.45;17.58;;;8.60;99.90;;;;;;4997285;28;20069;-83
2022/04/06 00:47:19;;;;;;;39.15;17.65;;;8.60;99.90;;;;;;4997956;28;20100;-83
2022/04/06 00:49:45;;;;;;;39.45;16.58;;;8.70;99.90;;;;;;4997720;28;20132;-83
2022/04/06 00:52:10;;;;;;;43.75;17.35;;;8.70;99.90;;;;;;4997225;28;20085;-83
2022/04/06 00:54:36;;;;;;;35.78;16.10;;;8.70;99.90;;;;;;4997328;28;20041;-84
2022/04/06 00:57:02;;;;;;;37.83;16.23;;;8.70;99.90;;;;;;4964837;28;20038;-84
2022/04/06 00:59:28;;;;;;;39.63;15.63;;;8.70;99.90;;;;;;5013370;28;20042;-84
2022/04/06 01:01:55;;;;;;;38.50;16.08;;;8.70;99.90;;;;;;5013902;28;20062;-84
2022/04/06 01:04:21;;;;;;;37.45;14.63;;;8.60;99.90;;;;;;4981127;28;20049;-84
2022/04/06 01:06:50;;;;;;;35.65;14.85;;;8.70;99.90;;;;;;4981431;28;20049;-84
2022/04/06 01:09:16;;;;;;;33.85;14.77;;;8.80;99.90;;;;;;4997164;28;20054;-84
2022/04/06 01:11:44;;;;;;;31.65;14.43;;;8.70;99.90;;;;;;4997195;28;20046;-84
2022/04/06 01:14:09;;;;;;;34.70;16.38;;;8.70;99.90;;;;;;4980349;28;20050;-84
2022/04/06 01:16:35;;;;;;;41.50;18.23;;;8.70;99.90;;;;;;4980259;28;20058;-84
2022/04/06 01:19:01;;;;;;;32.50;16.42;;;8.70;99.90;;;;;;4996438;28;20053;-84
2022/04/06 01:21:26;;;;;;;33.38;16.45;;;8.70;99.90;;;;;;5013887;28;20093;-84
2022/04/06 01:23:52;;;;;;;35.95;17.48;;;8.70;99.90;;;;;;4980417;28;20062;-83
2022/04/06 01:26:18;;;;;;;37.67;17.30;;;8.70;99.90;;;;;;4980724;28;20054;-84
2022/04/06 01:28:44;;;;;;;35.35;17.80;;;8.80;99.90;;;;;;4996767;28;20386;-84
2022/04/06 01:31:10;;;;;;;38.67;18.30;;;8.70;99.90;;;;;;4980173;28;20088;-83
2022/04/06 01:33:36;;;;;;;36.33;18.00;;;8.70;99.90;;;;;;5013312;28;20111;-82
2022/04/06 01:36:02;;;;;;;39.33;18.50;;;8.70;99.90;;;;;;5023376;28;20436;-83
2022/04/06 01:38:27;;;;;;;33.70;17.02;;;8.70;99.90;;;;;;4996786;28;20065;-83
2022/04/06 01:40:53;;;;;;;29.50;17.70;;;8.90;99.90;;;;;;4975135;28;20482;-83
2022/04/06 01:43:19;;;;;;;38.60;18.15;;;8.80;99.90;;;;;;4989368;28;20347;-83
2022/04/06 01:45:45;;;;;;;32.22;17.92;;;8.90;99.90;;;;;;4964672;28;20485;-83
2022/04/06 01:48:13;;;;;;;40.03;16.85;;;8.70;99.90;;;;;;4995744;28;20136;-83
2022/04/06 01:53:22;;;;;;;32.50;18.15;;;8.80;99.90;;;;;;5012592;28;20502;-83
2022/04/06 01:55:48;;;;;;;37.78;18.10;;;8.80;99.90;;;;;;5012472;28;20070;-83
2022/04/06 01:58:15;;;;;;;31.83;15.90;;;8.80;99.90;;;;;;4995958;28;20397;-84
2022/04/06 02:00:40;;;;;;;24.23;14.10;;;8.90;99.90;;;;;;5012878;28;20049;-84
2022/04/06 02:03:06;;;;;;;28.50;14.40;;;9.10;99.90;;;;;;5012379;28;20050;-84
2022/04/06 02:05:33;;;;;;;33.65;14.75;;;9.10;99.90;;;;;;4995942;28;20154;-83
2022/04/06 02:07:59;;;;;;;30.23;14.43;;;9.10;99.90;;;;;;4979445;28;20057;-83
2022/04/06 02:10:25;;;;;;;25.85;12.98;;;9.10;99.90;;;;;;4979515;28;20549;-83
2022/04/06 02:12:51;;;;;;;28.77;13.05;;;9.10;99.90;;;;;;4995638;28;20141;-83
2022/04/06 02:15:17;;;;;;;28.08;13.23;;;9.10;99.90;;;;;;4979241;28;20049;-83
2022/04/06 02:17:43;;;;;;;22.00;12.65;;;9.20;99.90;;;;;;4995354;28;20041;-83
2022/04/06 02:20:09;;;;;;;28.13;12.23;;;9.10;99.90;;;;;;4995607;28;20045;-83
2022/04/06 02:22:35;;;;;;;30.30;12.25;;;9.10;99.90;;;;;;4979430;28;20060;-83
2022/04/06 02:25:01;;;;;;;25.20;11.90;;;9.10;99.90;;;;;;5011414;28;20397;-83
2022/04/06 02:27:26;;;;;;;26.23;11.10;;;9.10;99.90;;;;;;5011462;28;20042;-83
2022/04/06 02:29:52;;;;;;;22.70;9.95;;;9.10;99.90;;;;;;4980471;28;20049;-83
2022/04/06 02:32:18;;;;;;;22.27;10.82;;;9.10;99.90;;;;;;5011534;28;20052;-83
2022/04/06 02:34:43;;;;;;;19.90;9.50;;;9.20;99.90;;;;;;4995993;28;20046;-83
2022/04/06 02:37:10;;;;;;;23.73;10.60;;;9.20;99.90;;;;;;4995494;28;20050;-83
2022/04/06 02:39:35;;;;;;;22.98;8.68;;;9.90;99.90;;;;;;4979819;28;20046;-83
2022/04/06 02:42:01;;;;;;;24.70;9.55;;;9.20;99.90;;;;;;4995650;28;20099;-82
2022/04/06 02:44:27;;;;;;;23.58;10.02;;;9.20;99.90;;;;;;4979877;28;20050;-83
2022/04/06 02:46:52;;;;;;;16.45;9.20;;;9.10;99.90;;;;;;5004465;28;20041;-83
2022/04/06 02:49:18;;;;;;;18.33;9.40;;;9.20;99.90;;;;;;5034427;28;20076;-83
2022/04/06 02:51:44;;;;;;;17.85;9.23;;;9.70;99.90;;;;;;5014293;28;20053;-83
2022/04/06 02:54:10;;;;;;;25.13;9.40;;;9.10;99.90;;;;;;5013753;28;20503;-83
2022/04/06 02:56:35;;;;;;;22.88;8.63;;;9.00;99.90;;;;;;5012527;28;20046;-83
2022/04/06 02:59:01;;;;;;;19.20;8.80;;;9.00;99.90;;;;;;4995331;28;20056;-83
2022/04/06 03:01:27;;;;;;;14.73;8.20;;;9.00;99.90;;;;;;4995385;28;20544;-83
2022/04/06 03:03:53;;;;;;;21.88;9.40;;;9.10;99.90;;;;;;4995285;28;20394;-83
2022/04/06 03:06:19;;;;;;;22.55;9.02;;;9.10;99.90;;;;;;5012177;28;20046;-83
2022/04/06 03:08:44;;;;;;;15.40;8.07;;;9.10;99.90;;;;;;5011453;28;20496;-83
2022/04/06 03:11:10;;;;;;;21.40;8.95;;;9.10;99.90;;;;;;5011493;28;20061;-83
2022/04/06 03:13:36;;;;;;;14.57;8.02;;;9.20;99.90;;;;;;5011362;28;20077;-83
2022/04/06 03:16:01;;;;;;;20.45;7.60;;;9.00;99.90;;;;;;4995294;28;20115;-83
2022/04/06 03:18:27;;;;;;;17.65;7.82;;;9.00;99.90;;;;;;4994625;28;20463;-83
2022/04/06 03:20:53;;;;;;;21.25;9.13;;;9.70;99.90;;;;;;5011353;28;20119;-83
2022/04/06 03:23:18;;;;;;;18.33;8.50;;;9.10;99.90;;;;;;4994649;28;20394;-83
2022/04/06 03:25:44;;;;;;;23.50;10.07;;;9.00;99.90;;;;;;4994632;28;20049;-84
2022/04/06 03:28:10;;;;;;;21.63;8.23;;;9.10;99.90;;;;;;5009692;28;20486;-83
2022/04/06 03:30:36;;;;;;;22.92;9.40;;;9.10;99.90;;;;;;4994939;28;20042;-83
2022/04/06 03:33:01;;;;;;;20.92;9.18;;;9.00;99.90;;;;;;5011286;28;20060;-83
2022/04/06 03:35:28;;;;;;;20.38;9.32;;;9.00;99.90;;;;;;5011044;28;20490;-83
2022/04/06 03:37:53;;;;;;;24.60;10.50;;;9.00;99.90;;;;;;5011042;28;20056;-83
2022/04/06 03:40:19;;;;;;;22.77;9.23;;;9.00;99.90;;;;;;4994487;28;20058;-83
2022/04/06 03:42:45;;;;;;;24.52;10.82;;;9.00;99.90;;;;;;5010892;28;20085;-83
2022/04/06 03:45:11;;;;;;;23.25;10.68;;;9.10;99.90;;;;;;5011586;28;20500;-83
2022/04/06 03:47:40;;;;;;;31.50;10.73;;;9.00;99.90;;;;;;5023149;28;20077;-82
2022/04/06 03:50:06;;;;;;;24.48;11.63;;;9.00;99.90;;;;;;5008325;28;20046;-82
2022/04/06 03:52:32;;;;;;;29.48;12.93;;;9.10;99.90;;;;;;5024879;28;20038;-82
2022/04/06 03:54:57;;;;;;;30.15;12.13;;;9.00;99.90;;;;;;5022082;28;20083;-83
2022/04/06 03:57:25;;;;;;;31.67;12.05;;;9.00;99.90;;;;;;5009443;28;20410;-83
2022/04/06 03:59:51;;;;;;;29.15;11.57;;;9.10;99.90;;;;;;5023758;28;20046;-83
2022/04/06 04:02:17;;;;;;;31.85;12.23;;;9.00;99.90;;;;;;5011606;28;20054;-83
2022/04/06 04:04:43;;;;;;;29.58;12.13;;;9.10;99.90;;;;;;4995506;28;20125;-83
2022/04/06 04:07:08;;;;;;;39.53;12.90;;;9.10;99.90;;;;;;5012495;28;20052;-83
2022/04/06 04:09:35;;;;;;;27.88;13.02;;;9.20;99.90;;;;;;4996358;28;20050;-83
2022/04/06 04:12:02;;;;;;;29.85;14.35;;;9.10;99.90;;;;;;4998807;28;20061;-83
2022/04/06 04:14:31;;;;;;;34.05;13.23;;;9.20;99.90;;;;;;4998626;28;20540;-83
2022/04/06 04:16:58;;;;;;;36.30;14.70;;;9.20;99.90;;;;;;5015241;28;20108;-83
2022/04/06 04:19:23;;;;;;;32.00;12.90;;;9.20;99.90;;;;;;5016076;28;20060;-83
2022/04/06 04:21:49;;;;;;;34.20;14.52;;;9.30;99.90;;;;;;5015954;28;20433;-83
2022/04/06 04:24:15;;;;;;;32.97;13.18;;;9.20;99.90;;;;;;4981133;28;20050;-83
2022/04/06 04:26:40;;;;;;;37.15;15.38;;;9.20;99.90;;;;;;5014191;28;20053;-82
2022/04/06 04:29:07;;;;;;;35.70;14.45;;;9.20;99.90;;;;;;5013760;28;20053;-83
2022/04/06 04:31:33;;;;;;;32.58;14.75;;;9.20;99.90;;;;;;5013546;28;20102;-83
2022/04/06 04:33:59;;;;;;;31.02;13.07;;;9.30;99.90;;;;;;4997981;28;20046;-83
2022/04/06 04:36:25;;;;;;;30.30;14.32;;;9.30;99.90;;;;;;5004378;28;20050;-82
2022/04/06 04:38:51;;;;;;;30.10;13.77;;;9.30;99.90;;;;;;5001491;28;20042;-83
2022/04/06 04:41:17;;;;;;;29.92;12.63;;;9.20;99.90;;;;;;5013349;28;20375;-83
2022/04/06 04:43:42;;;;;;;32.05;14.00;;;9.30;99.90;;;;;;5008225;28;20054;-83
2022/04/06 04:46:08;;;;;;;29.83;11.63;;;9.20;99.90;;;;;;4985036;28;20428;-83
2022/04/06 04:48:34;;;;;;;31.38;13.23;;;9.10;99.90;;;;;;4997124;28;20089;-83
2022/04/06 04:51:00;;;;;;;28.55;13.13;;;9.10;99.90;;;;;;4997653;28;20111;-83
2022/04/06 04:53:25;;;;;;;27.55;12.60;;;9.10;99.90;;;;;;4999657;28;20140;-83
2022/04/06 04:55:53;;;;;;;31.92;12.10;;;9.10;99.90;;;;;;4980631;28;20093;-82
2022/04/06 04:58:19;;;;;;;29.77;12.52;;;9.10;99.90;;;;;;4996356;28;20409;-82
2022/04/06 05:00:46;;;;;;;27.70;11.50;;;9.00;99.90;;;;;;4996810;28;20065;-82
2022/04/06 05:03:12;;;;;;;25.35;10.70;;;9.00;99.90;;;;;;5013966;28;20088;-83
2022/04/06 05:05:39;;;;;;;27.33;10.50;;;9.00;99.90;;;;;;5015569;28;20433;-83
2022/04/06 05:08:06;;;;;;;23.17;10.32;;;9.00;99.90;;;;;;5023578;28;20085;-82
2022/04/06 05:10:32;;;;;;;28.90;11.25;;;8.90;99.90;;;;;;5048158;28;20042;-83
2022/04/06 05:12:57;;;;;;;20.02;9.05;;;8.90;99.90;;;;;;5042521;28;20137;-83
2022/04/06 05:15:23;;;;;;;24.05;9.57;;;9.00;99.90;;;;;;5033336;28;20045;-83
2022/04/06 05:17:48;;;;;;;25.20;9.70;;;8.90;99.90;;;;;;5030314;28;20069;-82
2022/04/06 05:20:14;;;;;;;24.25;9.77;;;8.90;99.90;;;;;;5015088;28;20038;-83
2022/04/06 05:22:40;;;;;;;23.58;9.15;;;8.90;99.90;;;;;;4999622;28;20049;-83
2022/04/06 05:25:10;;;;;;;25.85;8.27;;;8.80;99.90;;;;;;5032476;28;20188;-83
2022/04/06 05:27:45;;;;;;;27.40;9.43;;;8.70;99.90;;;;;;5032654;28;20492;-83
2022/04/06 05:30:13;;;;;;;23.50;8.30;;;8.90;99.90;;;;;;5015414;28;20588;-83
2022/04/06 05:32:38;;;;;;;24.15;8.85;;;8.90;99.90;;;;;;5012969;28;20068;-83
2022/04/06 05:35:06;;;;;;;22.00;7.80;;;8.80;99.90;;;;;;5013184;28;20049;-83
2022/04/06 05:37:33;;;;;;;23.42;8.05;;;8.80;99.90;;;;;;5015014;28;20046;-82
2022/04/06 05:40:00;;;;;;;17.70;7.47;;;8.80;99.90;;;;;;4999344;28;20416;-84
2022/04/06 05:42:25;;;;;;;23.55;7.35;;;8.80;99.90;;;;;;5014950;28;20045;-82
2022/04/06 05:44:51;;;;;;;21.77;6.75;;;8.70;99.90;;;;;;5025064;28;20048;-81
2022/04/06 05:47:17;;;;;;;17.10;6.63;;;8.80;99.90;;;;;;5015067;28;20093;-82
2022/04/06 05:49:43;;;;;;;16.02;6.32;;;8.80;99.90;;;;;;5022013;28;20094;-83
2022/04/06 05:52:09;;;;;;;19.05;5.90;;;8.80;99.90;;;;;;4997953;28;20045;-82
2022/04/06 05:54:36;;;;;;;15.05;6.40;;;8.80;99.90;;;;;;5011880;28;20120;-83
2022/04/06 05:57:02;;;;;;;15.25;6.20;;;8.80;99.90;;;;;;5029484;28;20566;-83
2022/04/06 05:59:28;;;;;;;16.77;5.30;;;8.80;99.90;;;;;;4994660;28;20054;-83
2022/04/06 06:01:53;;;;;;;19.60;6.50;;;8.80;99.90;;;;;;5010866;28;20092;-82
2022/04/06 06:04:19;;;;;;;14.57;5.55;;;8.80;99.90;;;;;;4998352;28;20154;-82
2022/04/06 06:06:44;;;;;;;18.08;5.55;;;8.80;99.90;;;;;;4990758;28;20049;-82
2022/04/06 06:09:10;;;;;;;17.58;5.28;;;8.80;99.90;;;;;;5023644;28;20485;-82
2022/04/06 06:11:36;;;;;;;14.75;5.43;;;8.70;99.90;;;;;;5025926;28;20247;-82
2022/04/06 06:14:03;;;;;;;15.15;6.10;;;8.80;99.90;;;;;;5028288;28;20458;-83
2022/04/06 06:16:28;;;;;;;14.23;5.85;;;8.80;99.90;;;;;;5012949;28;20481;-82
2022/04/06 06:18:55;;;;;;;14.13;5.57;;;8.80;99.90;;;;;;5013499;28;20049;-82
2022/04/06 06:21:21;;;;;;;10.95;5.68;;;8.80;99.90;;;;;;5013254;28;20060;-83
2022/04/06 06:23:47;;;;;;;19.70;6.57;;;8.80;99.90;;;;;;5010509;28;20108;-83
2022/04/06 06:26:13;;;;;;;17.02;6.30;;;8.80;99.90;;;;;;5011999;28;20056;-82
2022/04/06 06:28:39;;;;;;;15.45;6.13;;;8.70;99.90;;;;;;5028877;28;20044;-82
2022/04/06 06:31:05;;;;;;;15.05;5.75;;;8.80;99.90;;;;;;5010528;28;20544;-84
2022/04/06 06:33:30;;;;;;;14.57;5.60;;;8.70;99.90;;;;;;5011957;28;20045;-83
2022/04/06 06:35:56;;;;;;;13.75;5.90;;;8.60;99.90;;;;;;5009873;28;20413;-83
2022/04/06 06:38:22;;;;;;;19.42;6.07;;;8.60;99.90;;;;;;5018913;28;20709;-84
2022/04/06 06:40:48;;;;;;;23.73;6.53;;;8.50;99.90;;;;;;5029111;28;20426;-83
2022/04/06 06:43:17;;;;;;;11.63;6.00;;;8.60;99.90;;;;;;5027397;28;20099;-82
2022/04/06 06:45:43;;;;;;;16.98;5.90;;;8.60;99.90;;;;;;5024094;28;20490;-83
2022/04/06 06:48:08;;;;;;;13.45;5.13;;;8.60;99.90;;;;;;5027171;28;20200;-84
2022/04/06 06:50:34;;;;;;;15.32;5.90;;;8.60;99.90;;;;;;5010493;28;20076;-83
2022/04/06 06:53:00;;;;;;;17.35;5.88;;;8.70;99.90;;;;;;5010762;28;20078;-83
2022/04/06 06:55:26;;;;;;;13.43;5.20;;;8.70;99.90;;;;;;5009195;28;20054;-84
2022/04/06 06:57:52;;;;;;;16.77;6.30;;;8.60;99.90;;;;;;5029742;28;20045;-83
2022/04/06 07:00:18;;;;;;;14.95;5.70;;;8.60;99.90;;;;;;5013590;28;20099;-85
2022/04/06 07:02:44;;;;;;;15.80;5.38;;;8.60;99.90;;;;;;5010964;28;20049;-84
2022/04/06 07:05:10;;;;;;;20.67;7.45;;;8.60;99.90;;;;;;5030107;28;20061;-83
2022/04/06 07:07:55;;;;;;;15.57;4.55;;;8.60;99.90;;;;;;5009420;28;20049;-83
2022/04/06 07:10:21;;;;;;;15.93;5.75;;;8.70;99.90;;;;;;5041915;28;20049;-83
2022/04/06 07:12:47;;;;;;;18.27;5.47;;;9.10;99.90;;;;;;5047725;28;20152;-83
2022/04/06 07:15:14;;;;;;;13.45;5.68;;;8.70;99.90;;;;;;5039895;28;20085;-83
2022/04/06 07:17:39;;;;;;;16.30;5.22;;;9.10;99.90;;;;;;5031007;28;20084;-83
2022/04/06 07:20:06;;;;;;;15.20;5.15;;;8.70;99.90;;;;;;5024931;28;20135;-83
2022/04/06 07:22:32;;;;;;;15.25;4.32;;;8.70;99.90;;;;;;5014765;28;20037;-83
2022/04/06 07:24:57;;;;;;;20.90;4.45;;;8.80;99.90;;;;;;5012185;28;20091;-83
2022/04/06 07:27:23;;;;;;;14.52;4.90;;;8.70;99.90;;;;;;5010243;28;20068;-83
2022/04/06 07:29:49;;;;;;;14.48;5.18;;;8.70;99.90;;;;;;5050999;28;20075;-83
2022/04/06 07:32:14;;;;;;;13.68;5.35;;;8.70;99.90;;;;;;5044113;28;20061;-83
2022/04/06 07:34:43;;;;;;;17.83;5.05;;;8.80;99.90;;;;;;5030900;28;20130;-83
2022/04/06 07:37:09;;;;;;;18.40;6.70;;;8.80;99.90;;;;;;4994821;28;20464;-83
2022/04/06 07:39:35;;;;;;;16.27;5.60;;;8.70;99.90;;;;;;5024077;28;20038;-83
2022/04/06 07:42:01;;;;;;;12.20;4.20;;;8.70;99.90;;;;;;5021780;28;20049;-83
2022/04/06 07:44:27;;;;;;;21.25;5.50;;;8.90;99.90;;;;;;5009314;28;20050;-83
2022/04/06 07:46:52;;;;;;;17.52;5.63;;;8.80;99.90;;;;;;5043142;28;20116;-83
2022/04/06 07:49:18;;;;;;;21.90;5.63;;;8.80;99.90;;;;;;5035431;28;20129;-83
2022/04/06 07:51:45;;;;;;;18.20;6.07;;;8.80;99.90;;;;;;5030047;28;20075;-83
2022/04/06 07:54:11;;;;;;;22.50;6.63;;;8.70;99.90;;;;;;5009290;28;20049;-83
2022/04/06 07:56:38;;;;;;;21.30;6.68;;;8.70;99.90;;;;;;5013315;28;20056;-84
2022/04/06 07:59:03;;;;;;;20.33;6.95;;;8.70;99.90;;;;;;5030187;28;20125;-84
2022/04/06 08:01:29;;;;;;;21.52;5.90;;;8.80;99.90;;;;;;5030991;28;20112;-83
2022/04/06 08:03:55;;;;;;;19.70;6.55;;;8.90;99.90;;;;;;5039136;28;20045;-84
2022/04/06 08:06:22;;;;;;;13.82;4.75;;;9.00;99.90;;;;;;5031599;28;20488;-83
2022/04/06 08:08:51;;;;;;;22.63;6.72;;;9.10;99.90;;;;;;5015888;28;20053;-84
2022/04/06 08:11:18;;;;;;;20.15;6.22;;;9.00;99.90;;;;;;5031527;28;20097;-84
2022/04/06 08:13:43;;;;;;;18.20;6.53;;;9.10;99.90;;;;;;5013925;28;20046;-84
2022/04/06 08:16:09;;;;;;;19.92;6.88;;;9.00;99.90;;;;;;5030148;28;20119;-83
2022/04/06 08:18:35;;;;;;;18.00;5.82;;;9.10;99.90;;;;;;4997319;28;20049;-83
2022/04/06 08:21:01;;;;;;;22.83;7.82;;;9.10;99.90;;;;;;5013698;28;20527;-83
2022/04/06 08:23:27;;;;;;;14.75;7.00;;;9.00;99.90;;;;;;5031380;28;20057;-84
2022/04/06 08:25:53;;;;;;;19.15;7.65;;;9.00;99.90;;;;;;4996778;28;20409;-83
2022/04/06 08:28:19;;;;;;;16.85;6.78;;;9.10;99.90;;;;;;5013248;28;20053;-84
2022/04/06 08:30:47;;;;;;;16.85;6.90;;;9.10;99.90;;;;;;5010646;28;20046;-83
2022/04/06 08:33:13;;;;;;;16.27;7.00;;;9.00;99.90;;;;;;4998831;28;20078;-83
2022/04/06 08:35:38;;;;;;;23.75;8.15;;;9.10;99.90;;;;;;5013845;28;20065;-83
2022/04/06 08:38:04;;;;;;;18.38;8.15;;;9.30;99.90;;;;;;5012696;28;20084;-83
2022/04/06 08:40:35;;;;;;;18.30;7.53;;;9.20;99.90;;;;;;5007672;28;20049;-83
2022/04/06 08:43:00;;;;;;;13.60;5.82;;;9.30;99.90;;;;;;5012925;28;20049;-82
2022/04/06 08:45:26;;;;;;;15.40;7.97;;;9.30;99.90;;;;;;5013184;28;20660;-84
2022/04/06 08:47:52;;;;;;;15.32;8.27;;;9.30;99.90;;;;;;5029948;28;20051;-83
2022/04/06 08:50:18;;;;;;;21.67;8.70;;;9.30;99.90;;;;;;5013046;28;20733;-83
2022/04/06 08:52:44;;;;;;;15.75;7.93;;;9.20;99.90;;;;;;4997789;28;20076;-82
2022/04/06 08:55:11;;;;;;;17.73;7.82;;;9.20;99.90;;;;;;4997759;28;20050;-82
2022/04/06 08:57:37;;;;;;;17.27;7.85;;;9.20;99.90;;;;;;5017865;28;20061;-82
2022/04/06 09:00:03;;;;;;;17.35;7.55;;;9.30;99.90;;;;;;5019140;28;20188;-83
2022/04/06 09:02:29;;;;;;;16.77;7.80;;;9.20;99.90;;;;;;5019971;28;20517;-82
2022/04/06 09:04:55;;;;;;;12.65;6.78;;;9.30;99.90;;;;;;5036924;28;20117;-83
2022/04/06 09:07:21;;;;;;;14.27;6.00;;;9.80;99.90;;;;;;5030456;28;20021;-83
2022/04/06 09:09:54;;;;;;;17.70;7.18;;;9.30;99.90;;;;;;5033264;28;20077;-82
2022/04/06 09:12:24;;;;;;;11.82;6.15;;;9.40;99.90;;;;;;5051512;28;20037;-82
2022/04/06 09:15:06;;;;;;;15.48;6.50;;;9.50;99.90;;;;;;5047850;28;20092;-81
2022/04/06 09:17:48;;;;;;;13.38;6.63;;;9.60;99.90;;;;;;5028851;28;20042;-82
2022/04/06 09:20:15;;;;;;;18.65;6.43;;;9.70;99.90;;;;;;5023787;28;20042;-81
2022/04/06 09:22:41;;;;;;;19.80;6.63;;;9.70;99.90;;;;;;5017264;28;20052;-82
2022/04/06 09:25:07;;;;;;;15.32;5.93;;;9.80;99.90;;;;;;5016496;28;20408;-81
2022/04/06 09:27:33;;;;;;;15.02;5.85;;;9.90;99.90;;;;;;5033427;28;20046;-82
2022/04/06 09:30:01;;;;;;;11.35;4.88;;;10.00;99.90;;;;;;5014474;28;20045;-81
2022/04/06 09:32:26;;;;;;;15.52;5.22;;;10.10;99.90;;;;;;5004899;28;20085;-81
2022/04/06 09:34:52;;;;;;;10.18;4.43;;;10.20;99.90;;;;;;4997516;28;20068;-81
2022/04/06 09:37:30;;;;;;;16.13;4.88;;;10.10;99.90;;;;;;5040247;28;20050;-81
2022/04/06 09:39:58;;;;;;;13.13;4.85;;;10.00;99.90;;;;;;5043004;28;20095;-81
2022/04/06 09:42:25;;;;;;;9.70;4.43;;;10.00;99.90;;;;;;5042465;28;20061;-81
2022/04/06 09:47:40;;;;;;;7.90;4.00;;;10.10;99.90;;;;;;5044106;28;20072;-81
2022/04/06 09:50:22;;;;;;;11.32;4.30;;;10.10;99.90;;;;;;5009927;28;20373;-80
2022/04/06 09:52:49;;;;;;;14.00;4.40;;;10.10;99.90;;;;;;5011059;28;20124;-82
2022/04/06 09:55:15;;;;;;;9.90;4.43;;;10.10;99.90;;;;;;5014506;28;20045;-83
2022/04/06 09:57:47;;;;;;;10.18;5.18;;;10.20;99.90;;;;;;5011324;28;20462;-81
2022/04/06 10:00:18;;;;;;;10.80;4.20;;;10.10;99.90;;;;;;5012019;28;20059;-80
2022/04/06 10:02:45;;;;;;;10.45;4.72;;;10.30;99.90;;;;;;5012397;28;20057;-81
2022/04/06 10:05:12;;;;;;;18.88;5.45;;;10.30;99.90;;;;;;5012448;28;20124;-82
2022/04/06 10:07:41;;;;;;;12.70;4.60;;;10.20;99.90;;;;;;5013038;28;20408;-81
2022/04/06 10:10:07;;;;;;;12.27;5.10;;;10.20;99.90;;;;;;5013125;28;20083;-82
2022/04/06 10:12:33;;;;;;;13.40;4.80;;;10.30;99.90;;;;;;5012846;28;20121;-82
2022/04/06 10:15:00;;;;;;;10.43;4.95;;;10.50;99.90;;;;;;5013966;28;20068;-82
2022/04/06 10:17:27;;;;;;;11.55;4.45;;;10.50;99.90;;;;;;5015474;28;20111;-81
2022/04/06 10:19:56;;;;;;;12.65;5.45;;;10.70;99.90;;;;;;5031709;28;20053;-83
2022/04/06 10:22:30;;;;;;;15.75;5.60;;;10.50;99.90;;;;;;5015042;28;20532;-82
2022/04/06 10:25:05;;;;;;;14.77;5.85;;;10.40;99.90;;;;;;5014772;28;20123;-81
2022/04/06 10:27:45;;;;;;;11.75;5.55;;;10.60;99.90;;;;;;5013471;28;20105;-82
2022/04/06 10:30:13;;;;;;;11.10;5.63;;;10.60;99.90;;;;;;5013523;28;20722;-81
2022/04/06 10:32:46;;;;;;;18.85;6.18;;;10.60;99.90;;;;;;5030602;28;20129;-82
2022/04/06 10:35:28;;;;;;;16.13;6.28;;;10.40;99.90;;;;;;4994796;28;20112;-82
2022/04/06 10:38:13;;;;;;;17.20;7.00;;;10.50;99.90;;;;;;5014325;28;20048;-82
2022/04/06 10:40:45;;;;;;;15.32;7.03;;;10.50;99.90;;;;;;5033289;28;20038;-80
2022/04/06 10:43:36;;;;;;;15.10;6.00;;;10.50;99.90;;;;;;5035969;28;20199;-83
2022/04/06 10:46:06;;;;;;;16.77;6.50;;;10.50;99.90;;;;;;5032377;28;20049;-82
2022/04/06 10:48:31;;;;;;;13.60;6.47;;;10.60;99.90;;;;;;5024243;28;20053;-80
2022/04/06 10:51:30;;;;;;;19.02;6.68;;;10.50;99.90;;;;;;5037723;28;20136;-83
2022/04/06 10:53:56;;;;;;;18.45;7.03;;;10.40;99.90;;;;;;5041912;28;20088;-81
2022/04/06 10:56:22;;;;;;;14.68;7.90;;;10.40;99.90;;;;;;5039686;28;20038;-81
2022/04/06 10:58:57;;;;;;;20.25;8.77;;;10.50;99.90;;;;;;5031884;28;20063;-81
2022/04/06 11:01:29;;;;;;;19.25;8.98;;;10.20;99.90;;;;;;5029493;28;20045;-81
2022/04/06 11:03:56;;;;;;;20.75;8.85;;;10.20;99.90;;;;;;5027159;28;20044;-82
2022/04/06 11:06:49;;;;;;;21.48;9.15;;;10.20;99.90;;;;;;5027158;28;20049;-80
2022/04/06 11:12:22;;;;;;;19.17;8.77;;;10.20;99.90;;;;;;5013703;28;20049;-81
2022/04/06 11:15:08;;;;;;;21.85;7.78;;;11.60;99.90;;;;;;5029485;28;20092;-80
2022/04/06 11:17:37;;;;;;;20.40;9.10;;;10.40;99.90;;;;;;4986807;28;20484;-82
2022/04/06 11:20:09;;;;;;;18.02;8.38;;;10.40;99.90;;;;;;4996973;28;20045;-81
2022/04/06 11:22:38;;;;;;;18.52;8.80;;;10.50;99.90;;;;;;5013462;28;20041;-81
2022/04/06 11:25:08;;;;;;;17.48;8.57;;;10.40;99.90;;;;;;5028564;28;20053;-81
2022/04/06 11:27:35;;;;;;;15.10;9.10;;;10.40;99.90;;;;;;5012876;28;20405;-81
2022/04/06 11:30:04;;;;;;;18.45;10.18;;;10.50;99.90;;;;;;5029099;28;20060;-81
2022/04/06 11:32:29;;;;;;;17.20;9.68;;;10.50;99.90;;;;;;5029116;28;20500;-81
2022/04/06 11:35:15;;;;;;;12.93;8.77;;;10.70;99.90;;;;;;5027276;28;20045;-81
2022/04/06 11:37:43;;;;;;;14.57;8.55;;;10.70;99.90;;;;;;5011287;28;20666;-82
2022/04/06 11:40:10;;;;;;;10.18;7.25;;;10.60;99.90;;;;;;5027777;28;20386;-83
2022/04/06 11:42:35;;;;;;;17.38;10.98;;;10.70;99.90;;;;;;5028837;28;20041;-81
2022/04/06 11:45:01;;;;;;;16.90;9.50;;;10.80;99.90;;;;;;5028841;28;20042;-81
2022/04/06 11:47:37;;;;;;;19.17;9.27;;;10.80;99.90;;;;;;5028727;28;20049;-82
2022/04/06 11:50:05;;;;;;;13.23;8.98;;;10.90;99.90;;;;;;5029144;28;20042;-82
2022/04/06 11:52:40;;;;;;;17.80;9.18;;;11.20;99.90;;;;;;5028029;28;20052;-82
2022/04/06 11:55:07;;;;;;;13.05;7.90;;;11.20;99.90;;;;;;5013093;28;20081;-82
2022/04/06 11:57:42;;;;;;;16.63;7.88;;;11.50;99.90;;;;;;5027867;28;20042;-81
2022/04/06 12:00:09;;;;;;;14.07;7.50;;;11.70;99.90;;;;;;5025416;28;20053;-82
2022/04/06 12:02:51;;;;;;;16.63;8.27;;;11.60;99.90;;;;;;5029732;28;20045;-81
2022/04/06 12:05:17;;;;;;;13.23;7.50;;;11.70;99.90;;;;;;5026163;28;20103;-81
2022/04/06 12:07:46;;;;;;;14.70;7.65;;;11.70;99.90;;;;;;5010973;28;20057;-81
2022/04/06 12:10:13;;;;;;;12.23;6.90;;;11.80;99.90;;;;;;5022221;28;20057;-81
2022/04/06 12:12:39;;;;;;;15.50;7.80;;;11.80;99.90;;;;;;5004668;28;20548;-82
2022/04/06 12:15:05;;;;;;;14.15;8.02;;;11.80;99.90;;;;;;5011864;28;20084;-81
2022/04/06 12:17:35;;;;;;;13.30;8.13;;;11.60;99.90;;;;;;5010156;28;20196;-81
2022/04/06 12:20:01;;;;;;;22.92;9.57;;;11.30;99.90;;;;;;5029032;28;20529;-82
2022/04/06 12:22:27;;;;;;;16.77;9.30;;;11.30;99.90;;;;;;5015801;28;20064;-80
2022/04/06 12:24:53;;;;;;;17.17;8.90;;;11.30;99.90;;;;;;5006853;28;20037;-79
2022/04/06 12:27:31;;;;;;;16.50;9.10;;;11.30;99.90;;;;;;5011704;28;20490;-83
2022/04/06 12:30:23;;;;;;;16.02;7.15;;;11.50;99.90;;;;;;5029318;28;20136;-83
2022/04/06 12:32:49;;;;;;;16.30;7.40;;;11.70;99.90;;;;;;5011779;28;20054;-83
2022/04/06 12:35:23;;;;;;;13.68;7.95;;;11.60;99.90;;;;;;5015007;28;20057;-81
2022/04/06 12:37:49;;;;;;;;;;;11.70;99.90;;;;;;5027203;28;20077;-82
2022/04/06 12:40:25;;;;;;;17.42;9.35;;;11.80;99.90;;;;;;4990744;28;19964;-81
2022/04/06 12:42:50;;;;;;;17.02;8.85;;;11.80;99.90;;;;;;5015210;28;20400;-82
2022/04/06 12:45:18;;;;;;;11.15;7.57;;;11.80;99.90;;;;;;5021456;28;20096;-81
2022/04/06 12:47:47;;;;;;;18.10;7.82;;;11.80;99.90;;;;;;5009551;28;20139;-81
2022/04/06 12:50:19;;;;;;;16.25;7.70;;;11.90;99.90;;;;;;5015696;28;20114;-81
2022/04/06 12:52:47;;;;;;;18.35;8.10;;;12.00;99.90;;;;;;5030391;28;20034;-81